sensor_id;sensor_type;location;lat;lon;timestamp;P1;durP1;ratioP1;P2;durP2;ratioP2
6131;SDS011;3097;42.692;23.278;2022-08-25T00:00:45;11.03;;;7.63;;
6131;SDS011;3097;42.692;23.278;2022-08-25T00:03:13;10.60;;;7.60;;
6131;SDS011;3097;42.692;23.278;2022-08-25T00:05:39;8.47;;;7.07;;
6131;SDS011;3097;42.692;23.278;2022-08-25T00:08:05;9.13;;;7.50;;
6131;SDS011;3097;42.692;23.278;2022-08-25T00:10:32;10.00;;;7.43;;
6131;SDS011;3097;42.692;23.278;2022-08-25T00:13:00;16.03;;;7.87;;
6131;SDS011;3097;42.692;23.278;2022-08-25T00:15:26;9.70;;;7.90;;
6131;SDS011;3097;42.692;23.278;2022-08-25T00:17:53;9.20;;;7.30;;
6131;SDS011;3097;42.692;23.278;2022-08-25T00:20:19;10.67;;;7.93;;
6131;SDS011;3097;42.692;23.278;2022-08-25T00:22:46;12.10;;;8.13;;
6131;SDS011;3097;42.692;23.278;2022-08-25T00:25:13;11.87;;;8.10;;
6131;SDS011;3097;42.692;23.278;2022-08-25T00:27:39;11.20;;;8.13;;
6131;SDS011;3097;42.692;23.278;2022-08-25T00:30:04;14.17;;;7.50;;
6131;SDS011;3097;42.692;23.278;2022-08-25T00:32:31;12.03;;;7.80;;
6131;SDS011;3097;42.692;23.278;2022-08-25T00:34:56;10.73;;;7.73;;
6131;SDS011;3097;42.692;23.278;2022-08-25T00:37:22;8.73;;;7.83;;
6131;SDS011;3097;42.692;23.278;2022-08-25T00:39:48;9.20;;;7.87;;
6131;SDS011;3097;42.692;23.278;2022-08-25T00:42:14;10.27;;;7.80;;
6131;SDS011;3097;42.692;23.278;2022-08-25T00:44:39;11.80;;;7.90;;
6131;SDS011;3097;42.692;23.278;2022-08-25T00:47:08;11.33;;;7.97;;
6131;SDS011;3097;42.692;23.278;2022-08-25T00:49:44;11.20;;;7.97;;
6131;SDS011;3097;42.692;23.278;2022-08-25T00:52:15;10.37;;;7.80;;
6131;SDS011;3097;42.692;23.278;2022-08-25T00:54:56;10.60;;;7.60;;
6131;SDS011;3097;42.692;23.278;2022-08-25T00:57:47;7.73;;;6.87;;
6131;SDS011;3097;42.692;23.278;2022-08-25T01:00:19;11.47;;;7.20;;
6131;SDS011;3097;42.692;23.278;2022-08-25T01:02:47;9.87;;;8.17;;
6131;SDS011;3097;42.692;23.278;2022-08-25T01:05:13;11.53;;;8.60;;
6131;SDS011;3097;42.692;23.278;2022-08-25T01:07:58;11.57;;;8.03;;
6131;SDS011;3097;42.692;23.278;2022-08-25T01:10:27;11.77;;;8.37;;
6131;SDS011;3097;42.692;23.278;2022-08-25T01:12:57;10.03;;;8.17;;
6131;SDS011;3097;42.692;23.278;2022-08-25T01:15:26;8.70;;;7.63;;
6131;SDS011;3097;42.692;23.278;2022-08-25T01:17:53;9.60;;;8.60;;
6131;SDS011;3097;42.692;23.278;2022-08-25T01:20:22;14.10;;;8.30;;
6131;SDS011;3097;42.692;23.278;2022-08-25T01:22:50;13.57;;;8.63;;
6131;SDS011;3097;42.692;23.278;2022-08-25T01:25:38;10.83;;;7.87;;
6131;SDS011;3097;42.692;23.278;2022-08-25T01:28:12;9.70;;;7.43;;
6131;SDS011;3097;42.692;23.278;2022-08-25T01:30:38;11.40;;;7.70;;
6131;SDS011;3097;42.692;23.278;2022-08-25T01:33:04;10.03;;;7.03;;
6131;SDS011;3097;42.692;23.278;2022-08-25T01:35:31;9.40;;;7.40;;
6131;SDS011;3097;42.692;23.278;2022-08-25T01:37:58;9.03;;;7.60;;
6131;SDS011;3097;42.692;23.278;2022-08-25T01:40:24;10.33;;;7.63;;
6131;SDS011;3097;42.692;23.278;2022-08-25T01:45:34;11.73;;;8.40;;
6131;SDS011;3097;42.692;23.278;2022-08-25T01:48:00;12.07;;;8.10;;
6131;SDS011;3097;42.692;23.278;2022-08-25T01:50:25;8.47;;;7.57;;
6131;SDS011;3097;42.692;23.278;2022-08-25T01:52:59;10.60;;;7.40;;
6131;SDS011;3097;42.692;23.278;2022-08-25T01:55:29;10.23;;;7.17;;
6131;SDS011;3097;42.692;23.278;2022-08-25T01:57:55;10.67;;;7.40;;
6131;SDS011;3097;42.692;23.278;2022-08-25T02:00:22;14.23;;;7.63;;
6131;SDS011;3097;42.692;23.278;2022-08-25T02:02:48;10.60;;;7.97;;
6131;SDS011;3097;42.692;23.278;2022-08-25T02:05:14;10.73;;;7.63;;
6131;SDS011;3097;42.692;23.278;2022-08-25T02:07:40;10.03;;;7.23;;
6131;SDS011;3097;42.692;23.278;2022-08-25T02:10:08;8.60;;;7.07;;
6131;SDS011;3097;42.692;23.278;2022-08-25T02:12:36;8.73;;;7.27;;
6131;SDS011;3097;42.692;23.278;2022-08-25T02:15:03;8.63;;;7.53;;
6131;SDS011;3097;42.692;23.278;2022-08-25T02:17:31;8.50;;;7.13;;
6131;SDS011;3097;42.692;23.278;2022-08-25T02:19:58;10.40;;;8.10;;
6131;SDS011;3097;42.692;23.278;2022-08-25T02:22:23;10.67;;;7.80;;
6131;SDS011;3097;42.692;23.278;2022-08-25T02:24:50;8.27;;;7.37;;
6131;SDS011;3097;42.692;23.278;2022-08-25T02:27:15;11.87;;;7.53;;
6131;SDS011;3097;42.692;23.278;2022-08-25T02:29:41;10.13;;;7.27;;
6131;SDS011;3097;42.692;23.278;2022-08-25T02:32:06;11.73;;;7.47;;
6131;SDS011;3097;42.692;23.278;2022-08-25T02:34:33;8.03;;;7.23;;
6131;SDS011;3097;42.692;23.278;2022-08-25T02:36:59;8.37;;;7.17;;
6131;SDS011;3097;42.692;23.278;2022-08-25T02:39:25;11.87;;;7.60;;
6131;SDS011;3097;42.692;23.278;2022-08-25T02:41:50;10.40;;;7.87;;
6131;SDS011;3097;42.692;23.278;2022-08-25T02:44:16;10.37;;;8.33;;
6131;SDS011;3097;42.692;23.278;2022-08-25T02:46:41;9.70;;;7.90;;
6131;SDS011;3097;42.692;23.278;2022-08-25T02:49:07;7.93;;;7.13;;
6131;SDS011;3097;42.692;23.278;2022-08-25T02:51:33;24.77;;;14.93;;
6131;SDS011;3097;42.692;23.278;2022-08-25T02:53:59;12.87;;;8.30;;
6131;SDS011;3097;42.692;23.278;2022-08-25T02:56:29;11.27;;;8.63;;
6131;SDS011;3097;42.692;23.278;2022-08-25T02:58:55;11.37;;;7.53;;
6131;SDS011;3097;42.692;23.278;2022-08-25T03:01:21;13.67;;;7.53;;
6131;SDS011;3097;42.692;23.278;2022-08-25T03:03:47;11.53;;;7.67;;
6131;SDS011;3097;42.692;23.278;2022-08-25T03:06:16;11.10;;;7.77;;
6131;SDS011;3097;42.692;23.278;2022-08-25T03:08:44;11.40;;;7.97;;
6131;SDS011;3097;42.692;23.278;2022-08-25T03:11:10;11.60;;;7.70;;
6131;SDS011;3097;42.692;23.278;2022-08-25T03:13:36;11.73;;;8.20;;
6131;SDS011;3097;42.692;23.278;2022-08-25T03:16:02;9.70;;;7.90;;
6131;SDS011;3097;42.692;23.278;2022-08-25T03:18:29;9.47;;;8.10;;
6131;SDS011;3097;42.692;23.278;2022-08-25T03:20:55;10.47;;;7.00;;
6131;SDS011;3097;42.692;23.278;2022-08-25T03:23:20;9.00;;;7.50;;
6131;SDS011;3097;42.692;23.278;2022-08-25T03:25:46;12.07;;;8.27;;
6131;SDS011;3097;42.692;23.278;2022-08-25T03:28:30;9.20;;;7.43;;
6131;SDS011;3097;42.692;23.278;2022-08-25T03:30:57;11.07;;;7.60;;
6131;SDS011;3097;42.692;23.278;2022-08-25T03:33:25;10.00;;;7.37;;
6131;SDS011;3097;42.692;23.278;2022-08-25T03:35:52;9.57;;;7.67;;
6131;SDS011;3097;42.692;23.278;2022-08-25T03:38:18;9.67;;;7.33;;
6131;SDS011;3097;42.692;23.278;2022-08-25T03:40:43;9.83;;;7.23;;
6131;SDS011;3097;42.692;23.278;2022-08-25T03:43:09;9.60;;;7.57;;
6131;SDS011;3097;42.692;23.278;2022-08-25T03:45:38;10.67;;;8.07;;
6131;SDS011;3097;42.692;23.278;2022-08-25T03:48:05;12.57;;;7.90;;
6131;SDS011;3097;42.692;23.278;2022-08-25T03:50:31;12.27;;;8.17;;
6131;SDS011;3097;42.692;23.278;2022-08-25T03:52:57;10.83;;;7.90;;
6131;SDS011;3097;42.692;23.278;2022-08-25T03:55:23;10.67;;;7.97;;
6131;SDS011;3097;42.692;23.278;2022-08-25T03:57:50;9.87;;;7.53;;
6131;SDS011;3097;42.692;23.278;2022-08-25T04:00:17;14.90;;;7.57;;
6131;SDS011;3097;42.692;23.278;2022-08-25T04:02:43;12.13;;;8.07;;
6131;SDS011;3097;42.692;23.278;2022-08-25T04:05:09;9.47;;;7.60;;
6131;SDS011;3097;42.692;23.278;2022-08-25T04:07:35;12.60;;;8.93;;
6131;SDS011;3097;42.692;23.278;2022-08-25T04:10:02;16.60;;;10.70;;
6131;SDS011;3097;42.692;23.278;2022-08-25T04:12:31;23.10;;;14.27;;
6131;SDS011;3097;42.692;23.278;2022-08-25T04:14:57;15.67;;;10.80;;
6131;SDS011;3097;42.692;23.278;2022-08-25T04:17:23;14.00;;;9.80;;
6131;SDS011;3097;42.692;23.278;2022-08-25T04:19:49;16.50;;;12.33;;
6131;SDS011;3097;42.692;23.278;2022-08-25T04:22:15;19.63;;;11.77;;
6131;SDS011;3097;42.692;23.278;2022-08-25T04:24:40;21.03;;;12.67;;
6131;SDS011;3097;42.692;23.278;2022-08-25T04:27:06;17.37;;;12.10;;
6131;SDS011;3097;42.692;23.278;2022-08-25T04:29:31;16.80;;;12.73;;
6131;SDS011;3097;42.692;23.278;2022-08-25T04:31:57;23.20;;;14.80;;
6131;SDS011;3097;42.692;23.278;2022-08-25T04:34:23;12.30;;;10.37;;
6131;SDS011;3097;42.692;23.278;2022-08-25T04:36:52;11.47;;;9.33;;
6131;SDS011;3097;42.692;23.278;2022-08-25T04:39:18;13.97;;;9.47;;
6131;SDS011;3097;42.692;23.278;2022-08-25T04:41:48;11.70;;;9.80;;
6131;SDS011;3097;42.692;23.278;2022-08-25T04:44:15;11.77;;;9.43;;
6131;SDS011;3097;42.692;23.278;2022-08-25T04:46:42;16.10;;;10.47;;
6131;SDS011;3097;42.692;23.278;2022-08-25T04:49:09;13.87;;;9.80;;
6131;SDS011;3097;42.692;23.278;2022-08-25T04:51:38;10.23;;;8.80;;
6131;SDS011;3097;42.692;23.278;2022-08-25T04:54:07;12.73;;;8.93;;
6131;SDS011;3097;42.692;23.278;2022-08-25T04:56:35;11.97;;;8.90;;
6131;SDS011;3097;42.692;23.278;2022-08-25T04:59:07;10.87;;;7.93;;
6131;SDS011;3097;42.692;23.278;2022-08-25T05:01:37;9.47;;;8.43;;
6131;SDS011;3097;42.692;23.278;2022-08-25T05:04:04;10.97;;;8.17;;
6131;SDS011;3097;42.692;23.278;2022-08-25T05:06:32;9.57;;;8.13;;
6131;SDS011;3097;42.692;23.278;2022-08-25T05:08:58;15.60;;;8.77;;
6131;SDS011;3097;42.692;23.278;2022-08-25T05:11:24;9.90;;;8.83;;
6131;SDS011;3097;42.692;23.278;2022-08-25T05:13:53;15.00;;;9.10;;
6131;SDS011;3097;42.692;23.278;2022-08-25T05:16:20;13.70;;;9.47;;
6131;SDS011;3097;42.692;23.278;2022-08-25T05:18:47;10.13;;;7.73;;
6131;SDS011;3097;42.692;23.278;2022-08-25T05:21:19;13.30;;;8.37;;
6131;SDS011;3097;42.692;23.278;2022-08-25T05:23:47;12.43;;;8.30;;
6131;SDS011;3097;42.692;23.278;2022-08-25T05:26:14;11.07;;;8.27;;
6131;SDS011;3097;42.692;23.278;2022-08-25T05:28:45;9.10;;;8.20;;
6131;SDS011;3097;42.692;23.278;2022-08-25T05:31:12;8.33;;;7.43;;
6131;SDS011;3097;42.692;23.278;2022-08-25T05:33:39;10.60;;;8.93;;
6131;SDS011;3097;42.692;23.278;2022-08-25T05:36:05;11.93;;;8.33;;
6131;SDS011;3097;42.692;23.278;2022-08-25T05:38:32;11.20;;;8.00;;
6131;SDS011;3097;42.692;23.278;2022-08-25T05:41:02;9.57;;;7.50;;
6131;SDS011;3097;42.692;23.278;2022-08-25T05:43:31;8.27;;;7.40;;
6131;SDS011;3097;42.692;23.278;2022-08-25T05:45:57;12.00;;;7.57;;
6131;SDS011;3097;42.692;23.278;2022-08-25T05:48:24;8.43;;;7.33;;
6131;SDS011;3097;42.692;23.278;2022-08-25T05:50:57;9.30;;;6.43;;
6131;SDS011;3097;42.692;23.278;2022-08-25T05:53:25;12.37;;;7.20;;
6131;SDS011;3097;42.692;23.278;2022-08-25T05:55:52;8.07;;;6.97;;
6131;SDS011;3097;42.692;23.278;2022-08-25T05:58:19;7.23;;;6.63;;
6131;SDS011;3097;42.692;23.278;2022-08-25T06:00:46;10.13;;;8.40;;
6131;SDS011;3097;42.692;23.278;2022-08-25T06:03:11;9.93;;;8.60;;
6131;SDS011;3097;42.692;23.278;2022-08-25T06:05:37;10.40;;;7.27;;
6131;SDS011;3097;42.692;23.278;2022-08-25T06:08:03;9.57;;;6.60;;
6131;SDS011;3097;42.692;23.278;2022-08-25T06:10:28;7.47;;;6.70;;
6131;SDS011;3097;42.692;23.278;2022-08-25T06:12:54;8.13;;;7.03;;
6131;SDS011;3097;42.692;23.278;2022-08-25T06:15:20;7.23;;;6.37;;
6131;SDS011;3097;42.692;23.278;2022-08-25T06:17:47;15.50;;;10.93;;
6131;SDS011;3097;42.692;23.278;2022-08-25T06:20:14;6.63;;;6.00;;
6131;SDS011;3097;42.692;23.278;2022-08-25T06:22:42;14.17;;;6.10;;
6131;SDS011;3097;42.692;23.278;2022-08-25T06:25:11;7.40;;;6.80;;
6131;SDS011;3097;42.692;23.278;2022-08-25T06:27:42;8.63;;;7.33;;
6131;SDS011;3097;42.692;23.278;2022-08-25T06:30:10;10.60;;;6.77;;
6131;SDS011;3097;42.692;23.278;2022-08-25T06:32:40;8.17;;;7.10;;
6131;SDS011;3097;42.692;23.278;2022-08-25T06:35:08;8.07;;;6.90;;
6131;SDS011;3097;42.692;23.278;2022-08-25T06:37:36;7.00;;;6.40;;
6131;SDS011;3097;42.692;23.278;2022-08-25T06:40:04;7.87;;;7.07;;
6131;SDS011;3097;42.692;23.278;2022-08-25T06:42:31;6.67;;;6.07;;
6131;SDS011;3097;42.692;23.278;2022-08-25T06:44:57;10.17;;;7.07;;
6131;SDS011;3097;42.692;23.278;2022-08-25T06:47:22;8.07;;;6.83;;
6131;SDS011;3097;42.692;23.278;2022-08-25T06:49:49;7.40;;;6.70;;
6131;SDS011;3097;42.692;23.278;2022-08-25T06:52:14;8.23;;;7.23;;
6131;SDS011;3097;42.692;23.278;2022-08-25T06:54:40;7.53;;;6.63;;
6131;SDS011;3097;42.692;23.278;2022-08-25T06:57:06;8.20;;;6.30;;
6131;SDS011;3097;42.692;23.278;2022-08-25T06:59:33;6.63;;;6.03;;
6131;SDS011;3097;42.692;23.278;2022-08-25T07:02:01;7.77;;;7.00;;
6131;SDS011;3097;42.692;23.278;2022-08-25T07:04:31;7.53;;;6.93;;
6131;SDS011;3097;42.692;23.278;2022-08-25T07:06:58;7.30;;;6.27;;
6131;SDS011;3097;42.692;23.278;2022-08-25T07:09:23;7.07;;;6.33;;
6131;SDS011;3097;42.692;23.278;2022-08-25T07:11:49;6.70;;;6.13;;
6131;SDS011;3097;42.692;23.278;2022-08-25T07:14:15;7.37;;;6.60;;
6131;SDS011;3097;42.692;23.278;2022-08-25T07:16:42;7.53;;;6.83;;
6131;SDS011;3097;42.692;23.278;2022-08-25T07:19:09;6.68;;;6.18;;
6131;SDS011;3097;42.692;23.278;2022-08-25T07:21:37;7.30;;;6.70;;
6131;SDS011;3097;42.692;23.278;2022-08-25T07:24:05;7.78;;;6.72;;
6131;SDS011;3097;42.692;23.278;2022-08-25T07:26:35;6.87;;;6.27;;
6131;SDS011;3097;42.692;23.278;2022-08-25T07:29:04;7.90;;;5.68;;
6131;SDS011;3097;42.692;23.278;2022-08-25T07:31:31;9.48;;;6.65;;
6131;SDS011;3097;42.692;23.278;2022-08-25T07:33:57;8.38;;;6.20;;
6131;SDS011;3097;42.692;23.278;2022-08-25T07:36:40;6.75;;;6.00;;
6131;SDS011;3097;42.692;23.278;2022-08-25T07:39:07;6.60;;;6.00;;
6131;SDS011;3097;42.692;23.278;2022-08-25T07:41:36;6.40;;;5.72;;
6131;SDS011;3097;42.692;23.278;2022-08-25T07:44:04;8.52;;;6.60;;
6131;SDS011;3097;42.692;23.278;2022-08-25T07:46:31;6.93;;;6.22;;
6131;SDS011;3097;42.692;23.278;2022-08-25T07:48:57;6.05;;;5.65;;
6131;SDS011;3097;42.692;23.278;2022-08-25T07:51:23;7.07;;;6.27;;
6131;SDS011;3097;42.692;23.278;2022-08-25T07:53:48;6.63;;;6.03;;
6131;SDS011;3097;42.692;23.278;2022-08-25T07:56:14;7.23;;;6.10;;
6131;SDS011;3097;42.692;23.278;2022-08-25T07:58:41;11.60;;;6.30;;
6131;SDS011;3097;42.692;23.278;2022-08-25T08:01:12;6.77;;;6.17;;
6131;SDS011;3097;42.692;23.278;2022-08-25T08:03:39;8.17;;;6.07;;
6131;SDS011;3097;42.692;23.278;2022-08-25T08:06:06;6.83;;;6.17;;
6131;SDS011;3097;42.692;23.278;2022-08-25T08:08:35;7.13;;;6.50;;
6131;SDS011;3097;42.692;23.278;2022-08-25T08:11:13;8.77;;;6.27;;
6131;SDS011;3097;42.692;23.278;2022-08-25T08:13:40;6.93;;;5.97;;
6131;SDS011;3097;42.692;23.278;2022-08-25T08:16:10;7.50;;;6.37;;
6131;SDS011;3097;42.692;23.278;2022-08-25T08:18:36;6.90;;;6.33;;
6131;SDS011;3097;42.692;23.278;2022-08-25T08:21:02;6.87;;;6.00;;
6131;SDS011;3097;42.692;23.278;2022-08-25T08:23:28;6.97;;;6.22;;
6131;SDS011;3097;42.692;23.278;2022-08-25T08:25:54;9.32;;;6.82;;
6131;SDS011;3097;42.692;23.278;2022-08-25T08:28:20;9.87;;;5.97;;
6131;SDS011;3097;42.692;23.278;2022-08-25T08:30:45;6.70;;;6.10;;
6131;SDS011;3097;42.692;23.278;2022-08-25T08:33:12;6.87;;;5.93;;
6131;SDS011;3097;42.692;23.278;2022-08-25T08:35:38;6.60;;;5.83;;
6131;SDS011;3097;42.692;23.278;2022-08-25T08:38:05;6.63;;;5.80;;
6131;SDS011;3097;42.692;23.278;2022-08-25T08:40:30;10.60;;;6.00;;
6131;SDS011;3097;42.692;23.278;2022-08-25T08:43:07;6.90;;;6.27;;
6131;SDS011;3097;42.692;23.278;2022-08-25T08:45:46;6.60;;;5.90;;
6131;SDS011;3097;42.692;23.278;2022-08-25T08:51:00;9.07;;;5.97;;
6131;SDS011;3097;42.692;23.278;2022-08-25T08:59:16;9.53;;;6.63;;
6131;SDS011;3097;42.692;23.278;2022-08-25T09:01:54;6.97;;;5.00;;
6131;SDS011;3097;42.692;23.278;2022-08-25T09:07:17;6.72;;;6.00;;
6131;SDS011;3097;42.692;23.278;2022-08-25T09:09:46;7.07;;;5.65;;
6131;SDS011;3097;42.692;23.278;2022-08-25T09:12:21;9.13;;;5.55;;
6131;SDS011;3097;42.692;23.278;2022-08-25T09:20:28;13.37;;;6.23;;
6131;SDS011;3097;42.692;23.278;2022-08-25T09:28:29;9.23;;;5.53;;
6131;SDS011;3097;42.692;23.278;2022-08-25T09:33:42;7.93;;;5.53;;
6131;SDS011;3097;42.692;23.278;2022-08-25T09:36:08;6.80;;;5.13;;
6131;SDS011;3097;42.692;23.278;2022-08-25T09:38:33;7.40;;;6.07;;
6131;SDS011;3097;42.692;23.278;2022-08-25T09:40:59;6.30;;;5.67;;
6131;SDS011;3097;42.692;23.278;2022-08-25T09:43:33;7.23;;;4.90;;
6131;SDS011;3097;42.692;23.278;2022-08-25T09:51:12;10.27;;;5.40;;
6131;SDS011;3097;42.692;23.278;2022-08-25T09:53:43;7.57;;;4.97;;
6131;SDS011;3097;42.692;23.278;2022-08-25T09:56:33;12.80;;;5.37;;
6131;SDS011;3097;42.692;23.278;2022-08-25T09:59:29;7.23;;;4.83;;
6131;SDS011;3097;42.692;23.278;2022-08-25T10:01:59;7.30;;;5.57;;
6131;SDS011;3097;42.692;23.278;2022-08-25T10:04:27;9.47;;;5.30;;
6131;SDS011;3097;42.692;23.278;2022-08-25T10:07:05;6.97;;;4.23;;
6131;SDS011;3097;42.692;23.278;2022-08-25T10:09:53;6.47;;;4.53;;
6131;SDS011;3097;42.692;23.278;2022-08-25T10:17:48;12.47;;;4.30;;
6131;SDS011;3097;42.692;23.278;2022-08-25T10:22:50;4.93;;;3.67;;
6131;SDS011;3097;42.692;23.278;2022-08-25T10:25:23;8.80;;;3.63;;
6131;SDS011;3097;42.692;23.278;2022-08-25T10:28:02;8.20;;;4.00;;
6131;SDS011;3097;42.692;23.278;2022-08-25T10:30:35;8.03;;;3.70;;
6131;SDS011;3097;42.692;23.278;2022-08-25T10:38:59;5.90;;;3.40;;
6131;SDS011;3097;42.692;23.278;2022-08-25T10:41:31;4.37;;;2.80;;
6131;SDS011;3097;42.692;23.278;2022-08-25T10:56:40;5.57;;;3.23;;
6131;SDS011;3097;42.692;23.278;2022-08-25T10:59:22;4.27;;;3.53;;
6131;SDS011;3097;42.692;23.278;2022-08-25T11:07:48;6.37;;;3.63;;
6131;SDS011;3097;42.692;23.278;2022-08-25T11:10:23;7.17;;;4.27;;
6131;SDS011;3097;42.692;23.278;2022-08-25T11:12:53;9.20;;;4.07;;
6131;SDS011;3097;42.692;23.278;2022-08-25T11:15:37;5.67;;;3.77;;
6131;SDS011;3097;42.692;23.278;2022-08-25T11:18:12;6.90;;;4.40;;
6131;SDS011;3097;42.692;23.278;2022-08-25T11:23:36;5.67;;;3.83;;
6131;SDS011;3097;42.692;23.278;2022-08-25T11:26:09;4.67;;;3.97;;
6131;SDS011;3097;42.692;23.278;2022-08-25T11:31:36;4.27;;;3.87;;
6131;SDS011;3097;42.692;23.278;2022-08-25T11:34:05;3.97;;;3.67;;
6131;SDS011;3097;42.692;23.278;2022-08-25T11:36:35;4.10;;;3.70;;
6131;SDS011;3097;42.692;23.278;2022-08-25T11:39:54;6.23;;;4.00;;
6131;SDS011;3097;42.692;23.278;2022-08-25T11:50:32;5.00;;;3.90;;
6131;SDS011;3097;42.692;23.278;2022-08-25T11:55:46;6.73;;;3.97;;
6131;SDS011;3097;42.692;23.278;2022-08-25T11:58:14;5.27;;;4.37;;
6131;SDS011;3097;42.692;23.278;2022-08-25T12:01:09;7.30;;;5.00;;
6131;SDS011;3097;42.692;23.278;2022-08-25T12:06:19;4.10;;;3.80;;
6131;SDS011;3097;42.692;23.278;2022-08-25T12:16:41;4.40;;;3.97;;
6131;SDS011;3097;42.692;23.278;2022-08-25T12:21:54;7.20;;;3.00;;
6131;SDS011;3097;42.692;23.278;2022-08-25T12:24:24;4.63;;;3.60;;
6131;SDS011;3097;42.692;23.278;2022-08-25T12:38:09;4.93;;;3.43;;
6131;SDS011;3097;42.692;23.278;2022-08-25T12:43:29;3.77;;;3.30;;
6131;SDS011;3097;42.692;23.278;2022-08-25T12:59:55;8.20;;;6.13;;
6131;SDS011;3097;42.692;23.278;2022-08-25T13:11:00;3.30;;;3.00;;
6131;SDS011;3097;42.692;23.278;2022-08-25T13:13:39;4.60;;;3.47;;
6131;SDS011;3097;42.692;23.278;2022-08-25T13:16:23;3.30;;;3.00;;
6131;SDS011;3097;42.692;23.278;2022-08-25T13:18:51;6.90;;;3.57;;
6131;SDS011;3097;42.692;23.278;2022-08-25T13:23:50;6.47;;;3.30;;
6131;SDS011;3097;42.692;23.278;2022-08-25T13:26:25;5.90;;;3.53;;
6131;SDS011;3097;42.692;23.278;2022-08-25T13:28:55;3.93;;;3.23;;
6131;SDS011;3097;42.692;23.278;2022-08-25T13:31:24;4.40;;;3.43;;
6131;SDS011;3097;42.692;23.278;2022-08-25T13:33:54;3.17;;;2.87;;
6131;SDS011;3097;42.692;23.278;2022-08-25T13:36:29;4.30;;;3.13;;
6131;SDS011;3097;42.692;23.278;2022-08-25T13:39:18;4.27;;;3.30;;
6131;SDS011;3097;42.692;23.278;2022-08-25T13:41:52;4.03;;;3.57;;
6131;SDS011;3097;42.692;23.278;2022-08-25T13:44:20;6.30;;;3.50;;
6131;SDS011;3097;42.692;23.278;2022-08-25T13:47:11;7.93;;;3.27;;
6131;SDS011;3097;42.692;23.278;2022-08-25T13:50:06;4.93;;;3.20;;
6131;SDS011;3097;42.692;23.278;2022-08-25T13:52:54;5.57;;;3.43;;
6131;SDS011;3097;42.692;23.278;2022-08-25T13:55:24;3.73;;;3.23;;
6131;SDS011;3097;42.692;23.278;2022-08-25T13:57:56;3.47;;;3.17;;
6131;SDS011;3097;42.692;23.278;2022-08-25T14:00:27;6.30;;;3.40;;
6131;SDS011;3097;42.692;23.278;2022-08-25T14:02:56;4.10;;;3.40;;
6131;SDS011;3097;42.692;23.278;2022-08-25T14:08:06;5.27;;;3.77;;
6131;SDS011;3097;42.692;23.278;2022-08-25T14:10:52;6.90;;;3.50;;
6131;SDS011;3097;42.692;23.278;2022-08-25T14:13:30;5.80;;;3.53;;
6131;SDS011;3097;42.692;23.278;2022-08-25T14:16:06;4.63;;;3.70;;
6131;SDS011;3097;42.692;23.278;2022-08-25T14:18:33;5.10;;;3.50;;
6131;SDS011;3097;42.692;23.278;2022-08-25T14:20:59;3.97;;;3.30;;
6131;SDS011;3097;42.692;23.278;2022-08-25T14:23:34;4.93;;;3.17;;
6131;SDS011;3097;42.692;23.278;2022-08-25T14:26:01;4.17;;;3.50;;
6131;SDS011;3097;42.692;23.278;2022-08-25T14:28:27;3.77;;;3.30;;
6131;SDS011;3097;42.692;23.278;2022-08-25T14:31:07;5.77;;;3.30;;
6131;SDS011;3097;42.692;23.278;2022-08-25T14:33:41;6.37;;;3.33;;
6131;SDS011;3097;42.692;23.278;2022-08-25T14:36:11;7.40;;;3.50;;
6131;SDS011;3097;42.692;23.278;2022-08-25T14:38:37;7.20;;;3.30;;
6131;SDS011;3097;42.692;23.278;2022-08-25T14:41:03;5.37;;;3.07;;
6131;SDS011;3097;42.692;23.278;2022-08-25T14:43:31;4.40;;;3.10;;
6131;SDS011;3097;42.692;23.278;2022-08-25T14:45:57;3.37;;;3.07;;
6131;SDS011;3097;42.692;23.278;2022-08-25T14:48:31;6.07;;;3.27;;
6131;SDS011;3097;42.692;23.278;2022-08-25T14:51:09;3.50;;;3.20;;
6131;SDS011;3097;42.692;23.278;2022-08-25T14:53:37;5.63;;;3.67;;
6131;SDS011;3097;42.692;23.278;2022-08-25T14:56:03;3.43;;;3.03;;
6131;SDS011;3097;42.692;23.278;2022-08-25T14:58:29;4.27;;;3.40;;
6131;SDS011;3097;42.692;23.278;2022-08-25T15:00:54;6.37;;;3.70;;
6131;SDS011;3097;42.692;23.278;2022-08-25T15:03:31;11.13;;;7.10;;
6131;SDS011;3097;42.692;23.278;2022-08-25T15:06:00;4.40;;;3.77;;
6131;SDS011;3097;42.692;23.278;2022-08-25T15:08:26;5.87;;;3.30;;
6131;SDS011;3097;42.692;23.278;2022-08-25T15:11:10;7.80;;;3.40;;
6131;SDS011;3097;42.692;23.278;2022-08-25T15:13:38;8.23;;;3.70;;
6131;SDS011;3097;42.692;23.278;2022-08-25T15:16:03;4.90;;;3.03;;
6131;SDS011;3097;42.692;23.278;2022-08-25T15:18:30;8.47;;;3.73;;
6131;SDS011;3097;42.692;23.278;2022-08-25T15:20:55;3.40;;;3.20;;
6131;SDS011;3097;42.692;23.278;2022-08-25T15:23:21;7.60;;;3.80;;
6131;SDS011;3097;42.692;23.278;2022-08-25T15:25:47;4.90;;;3.70;;
6131;SDS011;3097;42.692;23.278;2022-08-25T15:28:14;8.73;;;3.73;;
6131;SDS011;3097;42.692;23.278;2022-08-25T15:30:40;8.93;;;3.70;;
6131;SDS011;3097;42.692;23.278;2022-08-25T15:33:06;7.10;;;4.00;;
6131;SDS011;3097;42.692;23.278;2022-08-25T15:35:33;5.17;;;3.67;;
6131;SDS011;3097;42.692;23.278;2022-08-25T15:37:59;5.83;;;3.77;;
6131;SDS011;3097;42.692;23.278;2022-08-25T15:40:25;6.70;;;3.13;;
6131;SDS011;3097;42.692;23.278;2022-08-25T15:42:51;6.83;;;3.80;;
6131;SDS011;3097;42.692;23.278;2022-08-25T15:45:17;7.80;;;3.50;;
6131;SDS011;3097;42.692;23.278;2022-08-25T15:47:43;4.03;;;2.90;;
6131;SDS011;3097;42.692;23.278;2022-08-25T15:50:10;6.23;;;3.97;;
6131;SDS011;3097;42.692;23.278;2022-08-25T15:52:41;8.50;;;3.40;;
6131;SDS011;3097;42.692;23.278;2022-08-25T15:55:07;3.33;;;3.13;;
6131;SDS011;3097;42.692;23.278;2022-08-25T15:57:34;5.60;;;3.90;;
6131;SDS011;3097;42.692;23.278;2022-08-25T16:00:01;8.13;;;3.53;;
6131;SDS011;3097;42.692;23.278;2022-08-25T16:02:29;7.80;;;3.70;;
6131;SDS011;3097;42.692;23.278;2022-08-25T16:04:56;6.60;;;4.60;;
6131;SDS011;3097;42.692;23.278;2022-08-25T16:07:22;6.37;;;3.30;;
6131;SDS011;3097;42.692;23.278;2022-08-25T16:09:47;7.60;;;4.03;;
6131;SDS011;3097;42.692;23.278;2022-08-25T16:12:13;6.47;;;3.50;;
6131;SDS011;3097;42.692;23.278;2022-08-25T16:14:38;5.87;;;3.60;;
6131;SDS011;3097;42.692;23.278;2022-08-25T16:17:04;7.20;;;3.90;;
6131;SDS011;3097;42.692;23.278;2022-08-25T16:19:30;4.30;;;3.63;;
6131;SDS011;3097;42.692;23.278;2022-08-25T16:21:57;3.83;;;3.40;;
6131;SDS011;3097;42.692;23.278;2022-08-25T16:24:23;3.97;;;3.37;;
6131;SDS011;3097;42.692;23.278;2022-08-25T16:26:49;4.63;;;3.80;;
6131;SDS011;3097;42.692;23.278;2022-08-25T16:29:15;4.80;;;4.17;;
6131;SDS011;3097;42.692;23.278;2022-08-25T16:31:42;5.90;;;4.00;;
6131;SDS011;3097;42.692;23.278;2022-08-25T16:34:09;6.37;;;3.80;;
6131;SDS011;3097;42.692;23.278;2022-08-25T16:36:35;5.60;;;4.00;;
6131;SDS011;3097;42.692;23.278;2022-08-25T16:39:03;8.77;;;4.10;;
6131;SDS011;3097;42.692;23.278;2022-08-25T16:41:29;8.30;;;4.07;;
6131;SDS011;3097;42.692;23.278;2022-08-25T16:44:02;5.80;;;4.40;;
6131;SDS011;3097;42.692;23.278;2022-08-25T16:46:31;5.67;;;4.20;;
6131;SDS011;3097;42.692;23.278;2022-08-25T16:49:04;10.87;;;4.10;;
6131;SDS011;3097;42.692;23.278;2022-08-25T16:51:31;12.30;;;7.77;;
6131;SDS011;3097;42.692;23.278;2022-08-25T16:53:56;10.30;;;6.07;;
6131;SDS011;3097;42.692;23.278;2022-08-25T16:56:41;7.37;;;6.20;;
6131;SDS011;3097;42.692;23.278;2022-08-25T16:59:07;17.30;;;7.57;;
6131;SDS011;3097;42.692;23.278;2022-08-25T17:01:34;6.37;;;5.17;;
6131;SDS011;3097;42.692;23.278;2022-08-25T17:04:01;13.73;;;10.17;;
6131;SDS011;3097;42.692;23.278;2022-08-25T17:06:32;7.80;;;5.57;;
6131;SDS011;3097;42.692;23.278;2022-08-25T17:09:01;10.83;;;5.40;;
6131;SDS011;3097;42.692;23.278;2022-08-25T17:11:28;9.27;;;6.20;;
6131;SDS011;3097;42.692;23.278;2022-08-25T17:13:57;8.63;;;5.43;;
6131;SDS011;3097;42.692;23.278;2022-08-25T17:16:25;8.57;;;4.40;;
6131;SDS011;3097;42.692;23.278;2022-08-25T17:18:54;5.67;;;5.00;;
6131;SDS011;3097;42.692;23.278;2022-08-25T17:21:22;5.20;;;4.60;;
6131;SDS011;3097;42.692;23.278;2022-08-25T17:23:51;9.63;;;4.63;;